Time;durP1;ratioP1;P1;durP2;ratioP2;P2;SDS_P1;SDS_P2;PMS_P1;PMS_P2;Temp;Humidity;BMP_temperature;BMP_pressure;BME280_temperature;BME280_humidity;BME280_pressure;Samples;Min_cycle;Max_cycle;Signal;HPM_P1;HPM_P2
2021/10/25 00:00:42;;;;;;;1.92;1.13;;;22.00;52.10;;;;;;4984721;28;20106;-47
2021/10/25 00:03:08;;;;;;;1.83;1.00;;;22.00;52.10;;;;;;4988029;28;20188;-57
2021/10/25 00:05:34;;;;;;;1.77;0.98;;;22.00;52.10;;;;;;4987347;28;20022;-53
2021/10/25 00:08:00;;;;;;;1.80;1.10;;;22.00;52.20;;;;;;4992640;28;20038;-57
2021/10/25 00:10:25;;;;;;;1.65;0.95;;;22.00;52.20;;;;;;4978712;28;20523;-49
2021/10/25 00:12:51;;;;;;;1.77;1.00;;;21.90;52.20;;;;;;4980058;28;20058;-50
2021/10/25 00:15:17;;;;;;;1.98;1.20;;;21.90;52.20;;;;;;4987863;28;20048;-58
2021/10/25 00:17:43;;;;;;;1.45;1.00;;;21.90;52.20;;;;;;4980023;28;20057;-53
2021/10/25 00:20:09;;;;;;;2.17;1.00;;;21.90;52.20;;;;;;4990971;28;20042;-50
2021/10/25 00:22:35;;;;;;;1.75;1.20;;;21.90;52.20;;;;;;4982572;28;20031;-50
2021/10/25 00:25:01;;;;;;;2.15;1.10;;;21.90;52.20;;;;;;4987398;28;20026;-53
2021/10/25 00:27:27;;;;;;;1.85;1.10;;;21.80;52.20;;;;;;4991307;28;20406;-49
2021/10/25 00:29:53;;;;;;;2.88;1.27;;;21.90;52.30;;;;;;4986084;28;20034;-53
2021/10/25 00:32:18;;;;;;;1.83;0.98;;;21.80;52.20;;;;;;4992315;28;20096;-53
2021/10/25 00:34:44;;;;;;;1.83;1.00;;;21.80;52.20;;;;;;4990885;28;20030;-52
2021/10/25 00:37:10;;;;;;;2.40;0.95;;;21.80;52.20;;;;;;4977192;28;20027;-48
2021/10/25 00:39:35;;;;;;;1.60;1.00;;;21.80;52.20;;;;;;4985242;28;20113;-59
2021/10/25 00:42:02;;;;;;;1.60;1.10;;;21.80;52.20;;;;;;4986492;28;20058;-60
2021/10/25 00:44:29;;;;;;;1.30;0.90;;;21.80;52.20;;;;;;4987169;28;20019;-55
2021/10/25 00:46:56;;;;;;;2.15;0.90;;;21.80;52.20;;;;;;4986702;28;20030;-58
2021/10/25 00:49:21;;;;;;;1.92;1.10;;;21.80;52.20;;;;;;4984440;28;20061;-56
2021/10/25 00:51:48;;;;;;;1.98;1.02;;;21.80;52.20;;;;;;4989403;28;20069;-47
2021/10/25 00:54:14;;;;;;;1.40;0.90;;;21.80;52.30;;;;;;4982546;28;20117;-51
2021/10/25 00:56:43;;;;;;;1.92;1.10;;;21.80;52.30;;;;;;4991172;28;20105;-59
2021/10/25 00:59:09;;;;;;;1.73;1.10;;;21.80;52.60;;;;;;4987639;28;20033;-58
2021/10/25 01:01:35;;;;;;;1.67;1.05;;;21.70;52.20;;;;;;4983455;28;20038;-57
2021/10/25 01:04:02;;;;;;;1.88;1.00;;;21.70;52.20;;;;;;4991835;28;20037;-52
2021/10/25 01:06:29;;;;;;;1.10;0.88;;;21.70;52.20;;;;;;4991630;28;20031;-58
2021/10/25 01:08:56;;;;;;;1.63;1.02;;;21.70;52.30;;;;;;4988797;28;20026;-49
2021/10/25 01:11:23;;;;;;;1.58;1.00;;;21.70;52.30;;;;;;4990105;28;20630;-46
2021/10/25 01:13:49;;;;;;;1.83;0.98;;;21.70;52.30;;;;;;4985754;28;20348;-52
2021/10/25 01:16:15;;;;;;;1.80;0.98;;;21.70;52.30;;;;;;4989537;28;20042;-48
2021/10/25 01:18:41;;;;;;;1.73;1.00;;;21.70;52.30;;;;;;4988133;28;20491;-49
2021/10/25 01:21:07;;;;;;;1.75;1.00;;;21.70;52.30;;;;;;4980535;28;20034;-59
2021/10/25 01:23:33;;;;;;;2.13;0.90;;;21.70;52.30;;;;;;4975915;28;20099;-54
2021/10/25 01:25:59;;;;;;;1.38;0.90;;;21.70;52.30;;;;;;4983864;28;20061;-53
2021/10/25 01:28:25;;;;;;;1.40;0.88;;;21.70;52.30;;;;;;4986726;28;20030;-55
2021/10/25 01:30:50;;;;;;;1.00;0.75;;;21.70;52.30;;;;;;4986553;28;20116;-48
2021/10/25 01:33:17;;;;;;;1.55;0.90;;;21.60;52.30;;;;;;4989887;28;20041;-54
2021/10/25 01:35:43;;;;;;;1.60;0.90;;;21.60;52.30;;;;;;4988420;28;20066;-50
2021/10/25 01:38:09;;;;;;;1.00;0.88;;;21.60;52.30;;;;;;4989529;28;20026;-58
2021/10/25 01:40:35;;;;;;;2.63;1.15;;;21.60;52.30;;;;;;4989206;28;20485;-53
2021/10/25 01:43:02;;;;;;;1.58;1.10;;;21.60;52.30;;;;;;4988739;28;20065;-59
2021/10/25 01:45:29;;;;;;;1.77;1.10;;;21.60;52.30;;;;;;4991866;28;20085;-53
2021/10/25 01:47:55;;;;;;;1.88;1.08;;;21.60;52.30;;;;;;4989335;28;20513;-52
2021/10/25 01:50:23;;;;;;;1.30;0.85;;;21.60;52.30;;;;;;4985680;28;20071;-60
2021/10/25 01:52:49;;;;;;;1.10;0.80;;;21.60;52.30;;;;;;4986477;28;20114;-48
2021/10/25 01:55:15;;;;;;;2.03;1.20;;;21.60;52.30;;;;;;4990182;28;20068;-51
2021/10/25 01:57:41;;;;;;;2.10;1.00;;;21.50;52.30;;;;;;4989326;28;20068;-56
2021/10/25 02:00:07;;;;;;;1.48;1.00;;;21.50;52.30;;;;;;4987495;28;20041;-60
2021/10/25 02:02:33;;;;;;;1.60;1.00;;;21.50;52.30;;;;;;4985934;28;20501;-49
2021/10/25 02:05:01;;;;;;;1.90;1.10;;;21.50;52.30;;;;;;4991069;28;20031;-59
2021/10/25 02:07:28;;;;;;;1.77;0.90;;;21.50;52.30;;;;;;4987289;28;20033;-59
2021/10/25 02:09:54;;;;;;;1.73;1.10;;;21.50;52.30;;;;;;4987937;28;20030;-59
2021/10/25 02:12:20;;;;;;;3.65;0.90;;;21.50;52.30;;;;;;4987131;28;20039;-52
2021/10/25 02:14:46;;;;;;;1.33;0.88;;;21.50;52.30;;;;;;4984327;28;20487;-53
2021/10/25 02:17:12;;;;;;;1.20;0.85;;;21.50;52.30;;;;;;4983993;28;20034;-59
2021/10/25 02:19:38;;;;;;;1.73;1.00;;;21.50;52.30;;;;;;4989616;28;20053;-48
2021/10/25 02:22:04;;;;;;;1.90;1.15;;;21.50;52.30;;;;;;4984105;28;20042;-56
2021/10/25 02:24:30;;;;;;;1.20;0.90;;;21.50;52.40;;;;;;4987761;28;20037;-55
2021/10/25 02:26:56;;;;;;;1.70;0.90;;;21.40;52.30;;;;;;4989149;28;20076;-60
2021/10/25 02:29:22;;;;;;;1.60;1.05;;;21.50;52.40;;;;;;4988980;28;20037;-56
2021/10/25 02:31:47;;;;;;;1.73;1.00;;;21.50;52.40;;;;;;4982657;28;20126;-50
2021/10/25 02:34:13;;;;;;;1.40;0.90;;;21.40;52.30;;;;;;4980975;28;20422;-57
2021/10/25 02:36:39;;;;;;;1.25;0.90;;;21.40;52.30;;;;;;4985804;28;20057;-58
2021/10/25 02:39:05;;;;;;;1.58;1.00;;;21.40;52.30;;;;;;4987893;28;20076;-58
2021/10/25 02:41:31;;;;;;;1.13;0.88;;;21.40;52.30;;;;;;4986743;28;20054;-51
2021/10/25 02:43:56;;;;;;;1.55;0.90;;;21.40;52.30;;;;;;4984341;28;20061;-57
2021/10/25 02:46:22;;;;;;;1.50;1.00;;;21.40;52.30;;;;;;4986924;28;20394;-57
2021/10/25 02:48:47;;;;;;;1.10;0.90;;;21.40;52.30;;;;;;4980321;28;20057;-55
2021/10/25 02:51:13;;;;;;;1.40;0.90;;;21.40;52.30;;;;;;4985688;28;20030;-59
2021/10/25 02:53:39;;;;;;;1.30;1.00;;;21.40;52.30;;;;;;4978965;28;20112;-49
2021/10/25 02:56:05;;;;;;;1.67;0.90;;;21.40;52.30;;;;;;4972558;28;20046;-50
2021/10/25 02:58:30;;;;;;;1.17;0.98;;;21.40;52.40;;;;;;4974430;28;20034;-47
2021/10/25 03:00:56;;;;;;;0.93;0.80;;;21.40;52.30;;;;;;4985661;28;20768;-48
2021/10/25 03:03:23;;;;;;;1.20;0.80;;;21.40;52.30;;;;;;4987135;28;20121;-53
2021/10/25 03:05:49;;;;;;;1.42;0.90;;;21.40;52.40;;;;;;4982903;28;20093;-53
2021/10/25 03:08:14;;;;;;;2.17;0.95;;;21.30;52.30;;;;;;4989531;28;20046;-55
2021/10/25 03:10:40;;;;;;;1.10;0.80;;;21.30;52.30;;;;;;4987110;28;20026;-59
2021/10/25 03:13:08;;;;;;;1.45;0.95;;;21.30;52.30;;;;;;4991727;28;20433;-58
2021/10/25 03:15:34;;;;;;;1.33;0.82;;;21.30;52.30;;;;;;4986421;28;20518;-55
2021/10/25 03:18:00;;;;;;;1.38;0.85;;;21.30;52.30;;;;;;4988632;28;20041;-60
2021/10/25 03:20:26;;;;;;;1.52;1.00;;;21.30;52.30;;;;;;4985124;28;20038;-59
2021/10/25 03:22:51;;;;;;;1.23;0.88;;;21.30;52.30;;;;;;4984232;28;20034;-58
2021/10/25 03:25:17;;;;;;;1.50;0.90;;;21.30;52.30;;;;;;4985766;28;20438;-53
2021/10/25 03:27:43;;;;;;;1.58;0.98;;;21.30;52.40;;;;;;4987179;28;20080;-50
2021/10/25 03:30:11;;;;;;;1.75;1.08;;;21.30;52.90;;;;;;4986549;28;20034;-57
2021/10/25 03:32:37;;;;;;;1.60;0.93;;;21.30;52.40;;;;;;4987141;28;20034;-52
2021/10/25 03:35:03;;;;;;;1.02;0.80;;;21.30;52.40;;;;;;4984817;28;20073;-51
2021/10/25 03:37:29;;;;;;;1.08;0.73;;;21.30;52.40;;;;;;4979954;28;20794;-57
2021/10/25 03:39:55;;;;;;;1.20;0.90;;;21.30;52.40;;;;;;4986498;28;20038;-48
2021/10/25 03:42:30;;;;;;;1.10;0.80;;;21.30;52.40;;;;;;4983943;28;20340;-56
2021/10/25 03:50:18;;;;;;;1.25;0.77;;;21.30;52.40;;;;;;4981287;28;20022;-54
2021/10/25 03:55:19;;;;;;;1.23;0.70;;;21.30;52.40;;;;;;4978770;28;20030;-54
2021/10/25 04:30:07;;;;;;;1.08;0.85;;;21.20;53.00;;;;;;4986325;28;20133;-56
2021/10/25 04:32:33;;;;;;;0.85;0.80;;;21.20;52.50;;;;;;4982063;28;20031;-58
2021/10/25 04:34:59;;;;;;;1.35;0.88;;;21.20;52.50;;;;;;4977888;28;20030;-59
2021/10/25 04:37:25;;;;;;;0.90;0.80;;;21.20;52.50;;;;;;4983224;28;20586;-56
2021/10/25 04:39:50;;;;;;;1.10;0.80;;;21.20;52.50;;;;;;4981416;28;20062;-52
2021/10/25 04:42:17;;;;;;;1.20;0.80;;;21.20;52.50;;;;;;4983906;28;20125;-59
2021/10/25 04:44:44;;;;;;;1.20;0.73;;;21.20;52.50;;;;;;4979739;28;20057;-55
2021/10/25 04:47:10;;;;;;;1.42;0.90;;;21.20;52.50;;;;;;4979450;28;20027;-51
2021/10/25 04:49:36;;;;;;;1.63;0.88;;;21.20;52.50;;;;;;4984773;28;20035;-55
2021/10/25 04:52:03;;;;;;;1.23;0.80;;;21.20;52.50;;;;;;4974929;28;20027;-58
2021/10/25 04:54:29;;;;;;;1.20;0.80;;;21.20;52.50;;;;;;4979877;28;20030;-55
2021/10/25 04:56:54;;;;;;;1.20;0.70;;;21.20;52.60;;;;;;4989246;28;20033;-60
2021/10/25 04:59:20;;;;;;;1.10;0.80;;;21.20;52.60;;;;;;4973972;28;20117;-57
2021/10/25 05:01:45;;;;;;;0.95;0.70;;;21.20;52.60;;;;;;4988732;28;20049;-53
2021/10/25 05:04:11;;;;;;;1.02;0.80;;;21.20;52.60;;;;;;5000967;28;20044;-51
2021/10/25 05:06:37;;;;;;;1.45;0.90;;;21.20;52.60;;;;;;4986014;28;20030;-59
2021/10/25 05:09:02;;;;;;;1.38;0.80;;;21.20;52.60;;;;;;4983266;28;20033;-58
2021/10/25 05:11:28;;;;;;;1.65;0.90;;;21.20;52.60;;;;;;4995500;28;20022;-58
2021/10/25 05:13:53;;;;;;;1.42;0.88;;;21.20;52.60;;;;;;4993227;28;20030;-57
2021/10/25 05:16:19;;;;;;;1.48;0.80;;;21.20;52.60;;;;;;4998021;28;20042;-51
2021/10/25 05:18:44;;;;;;;0.93;0.80;;;21.20;52.60;;;;;;4979067;28;20105;-57
2021/10/25 05:21:10;;;;;;;1.73;0.80;;;21.20;52.60;;;;;;4980504;28;20122;-55
2021/10/25 05:23:36;;;;;;;1.33;0.90;;;21.20;52.70;;;;;;4989150;28;20080;-59
2021/10/25 05:26:02;;;;;;;1.58;0.90;;;21.20;52.60;;;;;;4986713;28;20045;-54
2021/10/25 05:28:27;;;;;;;2.20;1.00;;;21.20;52.70;;;;;;4986005;28;20030;-61
2021/10/25 05:30:53;;;;;;;1.95;1.15;;;21.20;53.10;;;;;;4977528;28;20406;-53
2021/10/25 05:33:19;;;;;;;2.08;1.27;;;21.20;53.40;;;;;;4987224;28;20204;-51
2021/10/25 05:35:44;;;;;;;1.77;1.10;;;21.40;53.30;;;;;;4988123;28;20089;-58
2021/10/25 05:38:12;;;;;;;2.50;1.20;;;21.60;53.00;;;;;;4985057;28;20088;-58
2021/10/25 05:40:39;;;;;;;2.30;1.20;;;21.70;52.50;;;;;;4988327;28;20126;-60
2021/10/25 05:43:04;;;;;;;2.97;1.20;;;21.80;52.40;;;;;;4983559;28;20035;-55
2021/10/25 05:45:30;;;;;;;2.15;1.20;;;21.90;52.10;;;;;;4988423;28;20043;-58
2021/10/25 05:47:57;;;;;;;1.95;1.10;;;22.00;51.80;;;;;;4986470;28;20118;-59
2021/10/25 05:50:22;;;;;;;2.67;1.27;;;22.10;51.80;;;;;;4986807;28;20030;-56
2021/10/25 05:52:48;;;;;;;2.80;1.30;;;22.10;51.60;;;;;;4990964;28;20045;-58
2021/10/25 05:55:20;;;;;;;2.00;1.10;;;22.30;51.50;;;;;;4988693;28;20037;-60
2021/10/25 05:57:46;;;;;;;2.20;1.30;;;22.40;51.10;;;;;;4986281;28;20026;-58
2021/10/25 06:00:13;;;;;;;2.17;1.20;;;22.50;50.80;;;;;;4991987;28;20391;-55
2021/10/25 06:02:39;;;;;;;2.17;1.13;;;22.50;50.70;;;;;;4987833;28;20537;-56
2021/10/25 06:05:06;;;;;;;2.30;1.20;;;22.60;50.70;;;;;;4990911;28;20027;-56
2021/10/25 06:07:32;;;;;;;2.80;1.30;;;22.70;50.60;;;;;;4986019;28;20022;-55
2021/10/25 06:09:58;;;;;;;2.38;1.20;;;22.80;50.30;;;;;;4987067;28;20121;-58
2021/10/25 06:12:25;;;;;;;2.80;1.27;;;22.90;50.30;;;;;;4990726;28;20041;-57
2021/10/25 06:14:54;;;;;;;2.05;1.00;;;23.10;50.00;;;;;;4991356;28;20503;-58
2021/10/25 06:17:39;;;;;;;2.10;1.03;;;23.20;49.60;;;;;;4988115;28;20041;-58
2021/10/25 06:20:10;;;;;;;2.00;1.20;;;23.30;49.40;;;;;;4990348;28;20076;-56
2021/10/25 06:22:38;;;;;;;2.25;1.08;;;23.40;49.20;;;;;;4979876;28;20030;-61
2021/10/25 06:25:10;;;;;;;2.05;1.10;;;23.50;49.10;;;;;;4987749;28;20121;-55
2021/10/25 06:27:35;;;;;;;1.90;1.10;;;23.60;48.80;;;;;;4991001;28;20057;-61
2021/10/25 06:30:02;;;;;;;2.30;1.20;;;23.70;48.70;;;;;;4994982;28;20722;-56
2021/10/25 06:32:28;;;;;;;2.00;1.08;;;23.70;48.50;;;;;;4992599;28;20060;-55
2021/10/25 06:34:55;;;;;;;2.75;1.20;;;23.80;48.20;;;;;;4988469;28;20041;-59
2021/10/25 06:37:23;;;;;;;2.15;1.13;;;23.90;48.10;;;;;;4984633;28;20035;-54
2021/10/25 06:39:54;;;;;;;2.40;1.20;;;24.00;48.00;;;;;;4991127;28;20165;-59
2021/10/25 06:42:20;;;;;;;2.33;1.20;;;24.00;47.90;;;;;;4983832;28;20065;-58
2021/10/25 06:44:54;;;;;;;1.52;1.10;;;23.90;48.00;;;;;;4991660;28;20022;-56
2021/10/25 06:47:21;;;;;;;3.60;1.10;;;23.80;48.10;;;;;;4979075;28;20034;-60
2021/10/25 06:49:47;;;;;;;2.00;1.00;;;23.80;48.30;;;;;;4983553;28;20061;-56
2021/10/25 06:52:12;;;;;;;4.05;1.30;;;23.70;48.40;;;;;;4985181;28;20599;-58
2021/10/25 06:54:38;;;;;;;2.28;1.10;;;23.70;48.40;;;;;;4985202;28;20098;-60
2021/10/25 06:57:04;;;;;;;1.63;1.10;;;23.70;48.50;;;;;;4982981;28;20026;-57
2021/10/25 06:59:29;;;;;;;1.80;1.00;;;23.60;48.50;;;;;;4976668;28;20033;-60
2021/10/25 07:01:56;;;;;;;2.80;0.90;;;23.60;48.70;;;;;;4986055;28;20103;-56
2021/10/25 07:04:22;;;;;;;2.15;1.17;;;23.60;48.80;;;;;;4999222;28;20041;-56
2021/10/25 07:06:47;;;;;;;2.17;1.10;;;23.60;48.70;;;;;;4992543;28;20042;-56
2021/10/25 07:09:13;;;;;;;2.00;1.13;;;23.60;48.70;;;;;;4995258;28;20513;-59
2021/10/25 07:11:43;;;;;;;2.25;1.20;;;23.60;48.70;;;;;;4988835;28;20391;-61
2021/10/25 07:14:10;;;;;;;2.58;1.08;;;23.60;48.70;;;;;;4992458;28;20037;-58
2021/10/25 07:17:09;;;;;;;2.40;1.10;;;23.60;48.70;;;;;;4985711;28;20683;-53
2021/10/25 07:27:38;;;;;;;2.00;1.10;;;23.60;49.00;;;;;;4987506;28;20501;-58
2021/10/25 08:04:03;;;;;;;2.22;1.10;;;23.60;48.60;;;;;;4984725;28;20049;-56
2021/10/25 08:06:05;;;;;;;1.95;1.10;;;23.60;48.50;;;;;;4984978;28;20057;-54
2021/10/25 08:09:00;;;;;;;1.25;0.90;;;23.50;48.40;;;;;;4990631;28;20524;-59
2021/10/25 08:11:18;;;;;;;1.35;1.02;;;23.50;48.40;;;;;;4987570;28;20442;-57
2021/10/25 08:13:45;;;;;;;2.08;1.20;;;23.60;48.50;;;;;;4988615;28;20022;-57
2021/10/25 08:21:11;;;;;;;2.83;1.10;;;23.60;48.40;;;;;;4991330;28;20030;-58
2021/10/25 08:23:37;;;;;;;3.00;1.23;;;23.50;48.40;;;;;;4982833;28;20030;-61
2021/10/25 08:26:02;;;;;;;1.73;1.10;;;23.50;48.50;;;;;;4980004;28;20512;-58
2021/10/25 08:28:28;;;;;;;2.53;1.00;;;23.50;48.50;;;;;;4998021;28;20056;-57
2021/10/25 08:30:54;;;;;;;1.80;1.10;;;23.50;48.50;;;;;;4995003;28;20053;-58
2021/10/25 08:33:41;;;;;;;2.35;1.20;;;23.50;48.50;;;;;;4979865;28;20038;-59
2021/10/25 08:36:23;;;;;;;3.65;1.25;;;23.50;48.40;;;;;;4983484;28;20034;-56
2021/10/25 08:41:34;;;;;;;2.08;1.30;;;23.50;48.40;;;;;;4984713;28;20056;-57
2021/10/25 08:44:04;;;;;;;1.33;1.00;;;23.50;48.40;;;;;;4980301;28;20037;-60
2021/10/25 08:46:30;;;;;;;2.17;1.13;;;23.50;48.40;;;;;;4982189;28;20200;-53
2021/10/25 08:48:57;;;;;;;2.03;1.00;;;23.50;48.40;;;;;;4981687;28;20549;-55
2021/10/25 08:51:24;;;;;;;2.17;1.10;;;23.50;48.40;;;;;;4990411;28;20023;-56
2021/10/25 08:53:50;;;;;;;2.33;1.30;;;23.50;48.40;;;;;;4980145;28;20046;-59
2021/10/25 08:56:17;;;;;;;1.10;0.80;;;23.50;48.40;;;;;;4980267;28;20064;-57
2021/10/25 08:58:45;;;;;;;1.90;1.35;;;23.50;48.40;;;;;;4985834;28;20381;-54
2021/10/25 09:01:29;;;;;;;1.58;1.10;;;23.50;48.40;;;;;;4976774;28;20039;-58
2021/10/25 09:04:21;;;;;;;3.00;1.20;;;23.40;48.40;;;;;;4989765;28;20080;-59
2021/10/25 09:06:55;;;;;;;2.33;1.20;;;23.40;48.40;;;;;;4989914;28;20038;-59
2021/10/25 09:09:22;;;;;;;2.10;1.08;;;23.50;48.50;;;;;;4988693;28;20508;-60
2021/10/25 09:12:05;;;;;;;1.83;1.15;;;23.40;48.40;;;;;;4996693;28;20030;-56
2021/10/25 09:14:32;;;;;;;1.88;1.13;;;23.40;48.40;;;;;;4989205;28;20138;-58
2021/10/25 09:17:09;;;;;;;2.83;1.25;;;23.40;48.40;;;;;;4988678;28;20038;-56
2021/10/25 09:19:36;;;;;;;1.63;1.08;;;23.40;48.40;;;;;;4982489;28;20034;-60
2021/10/25 09:22:15;;;;;;;2.00;1.13;;;23.40;48.40;;;;;;4997396;28;20088;-59
2021/10/25 09:24:53;;;;;;;1.23;1.02;;;23.40;48.40;;;;;;4994716;28;20018;-55
2021/10/25 09:27:32;;;;;;;1.48;1.00;;;23.40;48.40;;;;;;4991997;28;20035;-59
2021/10/25 09:30:13;;;;;;;1.88;1.10;;;23.40;48.40;;;;;;4992558;28;20030;-56
2021/10/25 09:32:41;;;;;;;1.33;1.00;;;23.40;48.40;;;;;;4989280;28;20042;-54
2021/10/25 09:35:17;;;;;;;1.92;1.02;;;23.40;48.40;;;;;;4992248;28;20049;-59
2021/10/25 09:37:49;;;;;;;1.83;1.17;;;23.40;48.40;;;;;;4988305;28;20021;-55
2021/10/25 09:40:28;;;;;;;2.92;1.55;;;23.40;48.40;;;;;;4990862;28;20046;-61
2021/10/25 09:43:06;;;;;;;2.28;1.20;;;23.40;48.40;;;;;;4992154;28;20049;-59
2021/10/25 09:45:46;;;;;;;1.42;1.00;;;23.40;48.90;;;;;;4989574;28;20034;-58
2021/10/25 09:51:03;;;;;;;2.13;1.30;;;23.40;48.40;;;;;;4981985;28;20065;-56
2021/10/25 09:53:30;;;;;;;1.58;1.00;;;23.40;48.40;;;;;;4989042;28;20026;-53
2021/10/25 09:55:56;;;;;;;1.90;1.08;;;23.40;48.40;;;;;;4982901;28;20487;-60
2021/10/25 09:58:23;;;;;;;2.50;1.27;;;23.40;48.40;;;;;;4983667;28;20108;-58
2021/10/25 10:00:49;;;;;;;2.40;1.35;;;23.40;48.40;;;;;;4984345;28;20118;-57
2021/10/25 10:03:15;;;;;;;1.85;1.20;;;23.40;48.40;;;;;;4989610;28;20026;-59
2021/10/25 10:05:43;;;;;;;1.85;1.20;;;23.40;48.40;;;;;;4984494;28;20522;-55
2021/10/25 10:08:09;;;;;;;2.00;1.20;;;23.40;48.40;;;;;;4986936;28;20058;-55
2021/10/25 10:10:39;;;;;;;2.25;1.15;;;23.40;48.40;;;;;;4987174;28;20504;-60
2021/10/25 10:13:06;;;;;;;1.80;1.20;;;23.40;48.50;;;;;;4992697;28;20363;-58
2021/10/25 10:15:34;;;;;;;2.70;1.30;;;23.40;48.40;;;;;;4986474;28;20106;-54
2021/10/25 10:18:10;;;;;;;2.10;1.17;;;23.40;48.40;;;;;;4984666;28;20161;-57
2021/10/25 10:20:42;;;;;;;1.85;1.10;;;23.40;48.50;;;;;;4976327;28;20045;-58
2021/10/25 10:23:13;;;;;;;2.28;1.35;;;23.40;48.50;;;;;;4986657;28;20042;-50
2021/10/25 10:25:51;;;;;;;2.72;1.40;;;23.40;48.50;;;;;;4983678;28;20057;-60
2021/10/25 10:28:19;;;;;;;2.33;1.10;;;23.40;48.50;;;;;;4989425;28;20065;-56
2021/10/25 10:30:56;;;;;;;2.33;1.23;;;23.40;48.50;;;;;;4992560;28;20130;-53
2021/10/25 10:33:41;;;;;;;2.40;1.20;;;23.40;48.50;;;;;;4992032;28;20405;-61
2021/10/25 10:36:15;;;;;;;1.98;1.17;;;23.40;48.50;;;;;;4995433;28;20133;-56
2021/10/25 10:39:02;;;;;;;2.25;1.20;;;23.40;48.50;;;;;;4986054;28;20467;-58
2021/10/25 10:41:43;;;;;;;1.67;1.10;;;23.40;48.50;;;;;;4992957;28;20486;-56
2021/10/25 10:44:12;;;;;;;2.30;1.40;;;23.40;48.60;;;;;;4997988;28;20069;-54
2021/10/25 10:47:11;;;;;;;2.28;1.33;;;23.40;48.50;;;;;;4988822;28;20076;-60
2021/10/25 10:49:42;;;;;;;2.00;1.30;;;23.40;48.60;;;;;;4979270;28;20113;-60
2021/10/25 10:52:30;;;;;;;3.10;1.50;;;23.30;48.60;;;;;;4989972;28;20124;-55
2021/10/25 10:55:11;;;;;;;2.35;1.38;;;23.40;48.70;;;;;;4997875;28;20026;-58
2021/10/25 11:00:22;;;;;;;2.67;1.38;;;23.40;48.70;;;;;;5004519;28;20085;-58
2021/10/25 11:03:20;;;;;;;2.15;1.30;;;23.40;48.70;;;;;;5001674;28;20065;-61
2021/10/25 11:06:16;;;;;;;2.60;1.20;;;23.40;48.80;;;;;;4995159;28;20086;-57
2021/10/25 11:08:47;;;;;;;1.98;1.25;;;23.40;48.80;;;;;;4999985;28;20055;-56
2021/10/25 11:11:19;;;;;;;1.42;1.13;;;23.40;48.80;;;;;;5001985;28;20036;-57
2021/10/25 11:13:51;;;;;;;1.80;1.30;;;23.40;48.80;;;;;;4991850;28;20711;-57
2021/10/25 11:18:51;;;;;;;2.63;1.40;;;23.40;48.90;;;;;;4987952;28;20031;-56
2021/10/25 11:21:25;;;;;;;3.10;1.30;;;23.40;48.90;;;;;;5003607;28;20064;-60
2021/10/25 11:24:20;;;;;;;3.13;1.73;;;23.40;48.90;;;;;;5010721;28;20045;-60
2021/10/25 11:26:49;;;;;;;1.23;0.98;;;23.40;48.90;;;;;;5001486;28;20098;-57
2021/10/25 11:29:20;;;;;;;2.05;1.20;;;23.40;49.00;;;;;;4999287;28;20023;-57
2021/10/25 11:31:55;;;;;;;2.05;1.10;;;23.40;49.00;;;;;;4992413;28;20077;-56
2021/10/25 11:34:26;;;;;;;2.42;1.30;;;23.40;49.00;;;;;;4994752;28;20081;-59
2021/10/25 11:37:17;;;;;;;3.35;1.50;;;23.40;49.10;;;;;;4996059;28;20040;-60
2021/10/25 11:40:08;;;;;;;1.85;1.20;;;23.40;49.10;;;;;;4987117;28;20054;-55
2021/10/25 11:42:52;;;;;;;2.13;1.33;;;23.40;49.10;;;;;;4994446;28;20113;-59
2021/10/25 11:45:21;;;;;;;4.45;1.40;;;23.40;49.10;;;;;;4991121;28;20036;-59
2021/10/25 11:47:48;;;;;;;2.35;1.25;;;23.40;49.10;;;;;;4998064;28;20116;-61
2021/10/25 11:50:26;;;;;;;2.40;1.30;;;23.40;49.10;;;;;;4989548;28;20122;-58
2021/10/25 11:52:59;;;;;;;3.88;1.45;;;23.50;49.20;;;;;;4987077;28;20038;-61
2021/10/25 11:55:44;;;;;;;2.03;1.10;;;23.50;49.20;;;;;;4991545;28;20688;-60
2021/10/25 11:58:13;;;;;;;2.50;1.30;;;23.40;49.30;;;;;;4987827;28;20536;-59
2021/10/25 12:00:47;;;;;;;2.70;1.20;;;23.50;49.30;;;;;;4997354;28;20427;-46
2021/10/25 12:03:21;;;;;;;2.90;1.42;;;23.50;49.30;;;;;;5000451;28;20027;-58
2021/10/25 12:05:47;;;;;;;3.20;1.30;;;23.50;49.30;;;;;;4987337;28;20044;-59
2021/10/25 12:08:14;;;;;;;2.50;1.30;;;23.50;49.40;;;;;;4996523;28;20149;-53
2021/10/25 12:10:41;;;;;;;1.98;1.33;;;23.50;49.40;;;;;;4999844;28;20030;-59
2021/10/25 12:13:12;;;;;;;2.65;1.50;;;23.50;49.40;;;;;;4999818;28;20105;-57
2021/10/25 12:15:47;;;;;;;1.67;1.15;;;23.50;49.40;;;;;;5000871;28;20132;-61
2021/10/25 12:18:19;;;;;;;5.03;1.42;;;23.50;49.40;;;;;;4992752;28;20367;-55
2021/10/25 12:20:45;;;;;;;2.55;1.20;;;23.50;49.40;;;;;;4984854;28;20057;-57
2021/10/25 12:23:17;;;;;;;2.15;1.25;;;23.50;49.40;;;;;;4985544;28;20032;-60
2021/10/25 12:25:45;;;;;;;1.98;1.25;;;23.50;49.40;;;;;;4985296;28;20027;-56
2021/10/25 12:28:23;;;;;;;2.00;1.30;;;23.50;49.40;;;;;;4987111;28;20078;-60
2021/10/25 12:31:10;;;;;;;2.22;1.25;;;23.50;49.40;;;;;;4985294;28;20767;-59
2021/10/25 12:33:37;;;;;;;1.73;1.15;;;23.50;49.40;;;;;;4983712;28;20066;-57
2021/10/25 12:36:19;;;;;;;1.77;1.15;;;23.50;49.50;;;;;;4981448;28;20085;-58
2021/10/25 12:38:49;;;;;;;2.00;1.20;;;23.60;49.50;;;;;;4986874;28;20057;-61
2021/10/25 12:41:15;;;;;;;3.40;1.27;;;23.60;49.60;;;;;;4972437;28;20522;-57
2021/10/25 12:43:48;;;;;;;2.60;1.23;;;23.60;49.60;;;;;;4988006;28;20069;-59
2021/10/25 12:46:17;;;;;;;2.05;1.30;;;23.60;49.60;;;;;;4981595;28;20125;-62
2021/10/25 12:48:46;;;;;;;2.42;1.25;;;23.60;49.60;;;;;;4986426;28;20022;-58
2021/10/25 12:51:12;;;;;;;2.13;1.33;;;23.60;49.60;;;;;;4982969;28;20049;-62
2021/10/25 12:53:44;;;;;;;3.22;1.17;;;23.60;49.60;;;;;;4988912;28;20038;-59
2021/10/25 12:56:09;;;;;;;1.65;1.10;;;23.60;49.60;;;;;;4988811;28;20037;-57
2021/10/25 12:58:35;;;;;;;2.55;1.45;;;23.60;49.60;;;;;;4989893;28;20035;-61
2021/10/25 13:01:11;;;;;;;1.77;1.17;;;23.60;49.60;;;;;;4984827;28;20153;-55
2021/10/25 13:03:37;;;;;;;1.83;1.00;;;23.60;49.60;;;;;;4988705;28;20581;-62
2021/10/25 13:06:09;;;;;;;2.33;1.33;;;23.60;49.60;;;;;;4984591;28;20133;-59
2021/10/25 13:08:35;;;;;;;1.85;1.20;;;23.60;49.60;;;;;;4984528;28;20034;-61
2021/10/25 13:11:02;;;;;;;2.05;1.05;;;23.60;49.60;;;;;;4987394;28;20126;-60
2021/10/25 13:13:35;;;;;;;2.08;1.08;;;23.60;49.60;;;;;;4989840;28;20564;-59
2021/10/25 13:16:02;;;;;;;1.77;1.10;;;23.70;49.60;;;;;;4991399;28;20062;-56
2021/10/25 13:18:28;;;;;;;2.85;1.23;;;23.70;49.60;;;;;;4988457;28;20034;-59
2021/10/25 13:20:56;;;;;;;1.60;1.10;;;23.70;49.60;;;;;;4989288;28;20053;-61
2021/10/25 13:23:22;;;;;;;1.83;1.10;;;23.70;49.60;;;;;;4978925;28;20097;-59
2021/10/25 13:25:49;;;;;;;1.65;1.10;;;23.70;49.60;;;;;;4995525;28;20062;-56
2021/10/25 13:28:16;;;;;;;2.63;1.30;;;23.70;49.60;;;;;;4990301;28;20156;-56
2021/10/25 13:30:42;;;;;;;1.70;1.17;;;23.70;49.60;;;;;;4987591;28;20042;-62
2021/10/25 13:33:08;;;;;;;2.28;1.30;;;23.70;49.60;;;;;;4988967;28;20018;-62
2021/10/25 13:35:33;;;;;;;2.95;1.40;;;23.70;49.60;;;;;;4990310;28;20034;-57
2021/10/25 13:37:59;;;;;;;2.20;1.33;;;23.70;49.60;;;;;;4988179;28;20064;-57
2021/10/25 13:40:29;;;;;;;1.67;1.00;;;23.70;49.70;;;;;;4980430;28;20425;-58
2021/10/25 13:42:56;;;;;;;3.17;1.33;;;23.70;49.70;;;;;;4991816;28;20087;-62
2021/10/25 13:45:22;;;;;;;2.53;1.30;;;23.70;49.70;;;;;;4987343;28;20022;-62
2021/10/25 13:47:48;;;;;;;1.98;1.10;;;23.70;49.60;;;;;;4983098;28;20030;-55
2021/10/25 13:50:14;;;;;;;2.30;1.38;;;23.70;49.70;;;;;;4983614;28;20712;-59
2021/10/25 13:52:40;;;;;;;1.90;1.20;;;23.80;49.70;;;;;;4978889;28;20393;-55
2021/10/25 13:55:06;;;;;;;2.00;1.30;;;23.80;49.70;;;;;;4980790;28;20720;-57
2021/10/25 13:57:40;;;;;;;1.83;1.17;;;23.80;49.70;;;;;;4988722;28;20116;-60
2021/10/25 14:00:09;;;;;;;1.75;1.10;;;23.80;49.70;;;;;;4979938;28;20117;-58
2021/10/25 14:02:35;;;;;;;2.38;1.13;;;23.80;49.70;;;;;;4978432;28;20125;-58
2021/10/25 14:05:01;;;;;;;2.72;1.23;;;23.80;49.70;;;;;;4983885;28;20160;-58
2021/10/25 14:07:34;;;;;;;2.17;1.33;;;23.80;49.70;;;;;;4983288;28;20808;-57
2021/10/25 14:10:10;;;;;;;2.42;1.20;;;23.80;49.70;;;;;;4990370;28;20405;-58
2021/10/25 14:12:37;;;;;;;3.00;1.30;;;23.80;49.70;;;;;;4985837;28;20038;-60
2021/10/25 14:15:28;;;;;;;3.35;1.35;;;23.80;49.70;;;;;;4983474;28;20030;-63
2021/10/25 14:17:52;;;;;;;1.70;1.20;;;23.80;49.70;;;;;;4989226;28;21487;-62
2021/10/25 14:20:20;;;;;;;3.10;1.20;;;23.80;49.70;;;;;;4987807;28;20227;-58
2021/10/25 14:22:46;;;;;;;2.47;1.10;;;23.80;49.70;;;;;;4982402;28;20058;-60
2021/10/25 14:25:12;;;;;;;2.13;1.15;;;23.80;49.70;;;;;;4989684;28;20077;-55
2021/10/25 14:27:38;;;;;;;2.25;1.23;;;23.90;49.70;;;;;;4988171;28;20034;-61
2021/10/25 14:30:06;;;;;;;2.13;1.13;;;23.90;49.70;;;;;;4980270;28;20040;-56
2021/10/25 14:32:32;;;;;;;1.95;1.20;;;23.80;49.60;;;;;;4980720;28;20049;-59
2021/10/25 14:34:59;;;;;;;1.88;1.17;;;23.90;49.60;;;;;;4985686;28;20398;-58